Terminal Aerodrome Forecast
Issued by NWS Cleveland, OH

Home | Current Version | Previous Version | Text Only | Print | Product List | Glossary On
Versions: 1 2 3 4 5 6 7 8 9 10 11 12 13 14 15 16 17 18 19 20 21 22 23 24 25
000
FTUS41 KCLE 010800 AAA
TAFYNG
TAF AMD
KYNG 010825Z 0108/0206 21006KT P6SM OVC045
     FM010900 20005KT 2SM -SN SCT008 OVC025
     FM011030 18006KT 1 1/2SM -SN OVC008
     FM011600 12008KT 3/4SM -SN OVC006
     FM012200 09010KT 1/2SM SN OVC003
     FM020300 08010KT 2SM -RASNPL OVC005=

USA.gov is the U.S. government's official web portal to all federal, state and local government web resources and services.